Nearby METAR Reports

Aktualna pogoda na lotniskach (dane METAR)

 

EPGD - Gdansk/Rebiechow, Poland
Distance from station: ENE 27mi, 44km
Updated: Tue, 10-Dec-2019 8:00am PST
Clear
Clear
 Wind from W
Wind: W 7 mph , 11 km/h
Temperature: 32°F , 0°C
Wind Chill: 25°F , -4°C
Dew Point: 27°F , -3°C
Humidity: 80%
Barometer: 30.12 inHg , 1020 hPa
Summary: Clear
Visibility: greater than 7 miles , 10 km
2019/12/10 16:00 EPGD 101600Z 28006KT CAVOK M00/M03 Q1020
EPSC - Szczecin/Golenio, Poland
Distance from station: WSW 128mi, 205km
Updated: Tue, 10-Dec-2019 8:00am PST
Clear
Clear
 Wind from varies
Wind: varies 2 mph , 4 km/h
Temperature: 30°F , -1°C
Dew Point: 27°F , -3°C
Humidity: 86%
Barometer: 30.18 inHg , 1022 hPa
Summary: Clear
Visibility: greater than 7 miles , 10 km
2019/12/10 16:00 EPSC 101600Z VRB02KT CAVOK M01/M03 Q1022
 
EPPO - Poznan/Lawica, Poland
Distance from station: SSW 131mi, 210km
Updated: Tue, 10-Dec-2019 8:00am PST
Clear
Clear
 Wind from WSW
Wind: WSW 5 mph , 7 km/h
Temperature: 30°F , -1°C
Wind Chill: 25°F , -4°C
Dew Point: 27°F , -3°C
Humidity: 86%
Barometer: 30.21 inHg , 1023 hPa
Summary: Clear
Visibility: greater than 7 miles , 10 km
2019/12/10 16:00 EPPO 101600Z 24004KT CAVOK M01/M03 Q1023
EPLL - Lodz/Lublinek, Poland
Distance from station: SSE 184mi, 296km
Updated: Tue, 10-Dec-2019 8:00am PST
Mostly Cloudy
Mostly Cloudy
 Wind from WNW
Wind: WNW 10 mph , 17 km/h
Temperature: 37°F , 3°C
Wind Chill: 30°F , -1°C
Dew Point: 30°F , -1°C
Humidity: 75%
Barometer: 30.15 inHg , 1021 hPa
Clouds: Mostly Cloudy
Visibility: 6 miles , 10 km
Cloud details: Mostly Cloudy 2700 ft
2019/12/10 16:00 EPLL 101600Z 30009KT 260V320 9999 BKN027 03/M01 Q1021
 
EPWA - Warsaw/Okecie, Poland
Distance from station: SE 191mi, 307km
Updated: Tue, 10-Dec-2019 8:00am PST
Light rain, Showers, Partly cloudy
Light rain, Showers, Partly cloudy
 Wind from WNW
Wind: WNW 9 mph , 15 km/h
Temperature: 37°F , 3°C
Wind Chill: 30°F , -1°C
Dew Point: 36°F , 2°C
Humidity: 93%
Barometer: 30.09 inHg , 1019 hPa
Summary: Light rain, Showers
Clouds: Partly Cloudy
Visibility: 6 miles , 10 km
Cloud details: Partly Cloudy 900 ft
Partly Cloudy 1800 ft
Partly Cloudy 2000 ft
2019/12/10 16:00 EPWA 101600Z 29008KT 9999 -SHRA SCT009 SCT018CB SCT020 03/02 Q1019 BECMG NSC
EPWR - Wroclaw/Strachow, Poland
Distance from station: S 219mi, 352km
Updated: Tue, 10-Dec-2019 8:00am PST
Clear
Clear
 Wind from WNW
Wind: WNW 6 mph , 9 km/h
Temperature: 32°F , 0°C
Wind Chill: 26°F , -3°C
Dew Point: 27°F , -3°C
Humidity: 80%
Barometer: 30.24 inHg , 1024 hPa
Summary: Clear
Visibility: greater than 7 miles , 10 km
2019/12/10 16:00 EPWR 101600Z 29005KT CAVOK M00/M03 Q1024

Metar display script from Saratoga-Weather.org